Time;durP1;ratioP1;P1;durP2;ratioP2;P2;SDS_P1;SDS_P2;PMS_P1;PMS_P2;Temp;Humidity;BMP_temperature;BMP_pressure;BME280_temperature;BME280_humidity;BME280_pressure;Samples;Min_cycle;Max_cycle;Signal;HPM_P1;HPM_P2
2021/10/07 05:06:15;;;;;;;36.25;18.37;;;;;;;2.41;72.44;99450.64;1871558;76;23303;-58
2021/10/07 05:08:44;;;;;;;23.73;8.95;;;;;;;2.37;72.44;99456.03;1827867;78;20864;-56
2021/10/07 05:11:10;;;;;;;16.37;8.53;;;;;;;2.41;72.47;99458.57;1827694;78;21765;-59
2021/10/07 05:13:37;;;;;;;26.90;8.65;;;;;;;2.47;72.40;99460.92;1827732;78;20916;-57
2021/10/07 05:16:05;;;;;;;25.37;9.03;;;;;;;2.53;72.38;99459.59;1827810;78;20853;-58
2021/10/07 05:18:32;;;;;;;17.35;8.20;;;;;;;2.62;72.20;99461.02;1827650;78;21474;-58
2021/10/07 05:20:58;;;;;;;25.80;8.23;;;;;;;2.69;71.96;99455.22;1827768;78;20971;-59
2021/10/07 05:23:25;;;;;;;26.23;8.05;;;;;;;2.79;71.71;99461.42;1827827;78;21743;-59
2021/10/07 05:25:52;;;;;;;25.45;8.95;;;;;;;2.84;71.58;99463.45;1827300;78;20915;-60
2021/10/07 05:28:19;;;;;;;25.30;8.68;;;;;;;2.92;71.43;99467.22;1827737;78;21515;-60
2021/10/07 05:30:48;;;;;;;18.17;8.75;;;;;;;2.98;71.20;99463.74;1827685;78;20994;-58
2021/10/07 05:33:15;;;;;;;21.42;8.95;;;;;;;3.07;70.93;99471.77;1827782;78;20975;-58
2021/10/07 05:35:42;;;;;;;19.40;8.85;;;;;;;3.11;70.54;99480.95;1827755;78;21088;-58
2021/10/07 05:38:09;;;;;;;25.57;9.55;;;;;;;3.19;70.47;99483.36;1827512;78;21423;-57
2021/10/07 05:40:36;;;;;;;19.57;9.58;;;;;;;3.28;70.12;99484.77;1827716;78;20963;-59
2021/10/07 05:43:04;;;;;;;26.50;8.58;;;;;;;3.35;69.66;99482.91;1827752;78;20872;-59
2021/10/07 05:45:30;;;;;;;25.10;9.55;;;;;;;3.43;69.33;99489.32;1828242;78;20873;-60
2021/10/07 05:47:57;;;;;;;22.50;9.68;;;;;;;3.53;69.13;99488.38;1827691;78;21781;-58
2021/10/07 05:50:24;;;;;;;17.42;8.45;;;;;;;3.62;68.79;99498.23;1827667;78;20821;-56
2021/10/07 05:52:51;;;;;;;22.65;8.70;;;;;;;3.67;68.42;99493.12;1828026;78;20865;-59
2021/10/07 05:55:18;;;;;;;22.02;8.55;;;;;;;3.75;68.12;99501.64;1827811;78;20936;-61
2021/10/07 05:57:46;;;;;;;19.42;8.43;;;;;;;3.82;67.86;99504.25;1828175;78;21692;-59
2021/10/07 06:00:15;;;;;;;22.42;8.73;;;;;;;3.89;67.59;99497.09;1827684;78;21977;-60
2021/10/07 06:02:42;;;;;;;19.62;10.40;;;;;;;3.95;67.34;99503.71;1827860;78;21359;-61
2021/10/07 06:05:10;;;;;;;21.02;8.83;;;;;;;4.04;66.84;99510.90;1822515;78;21395;-58
2021/10/07 06:07:37;;;;;;;16.93;8.83;;;;;;;4.10;66.54;99508.72;1816462;79;21000;-57
2021/10/07 06:10:06;;;;;;;18.75;8.20;;;;;;;4.18;66.37;99505.83;1816476;78;20856;-59
2021/10/07 06:12:34;;;;;;;18.23;7.78;;;;;;;4.30;65.99;99505.96;1816400;79;21695;-57
2021/10/07 06:15:01;;;;;;;22.73;8.75;;;;;;;4.39;65.37;99496.72;1816416;78;20904;-58
2021/10/07 06:17:29;;;;;;;24.43;8.43;;;;;;;4.50;65.23;99504.02;1815958;78;20912;-59
2021/10/07 06:20:03;;;;;;;16.00;8.05;;;;;;;4.58;64.75;99496.59;1815879;79;20991;-61
2021/10/07 06:22:25;;;;;;;18.27;8.38;;;;;;;4.69;64.23;99497.72;1756682;80;21403;-59
2021/10/07 06:24:53;;;;;;;20.20;7.85;;;;;;;4.78;63.83;99492.47;1777332;80;21127;-62
2021/10/07 06:27:20;;;;;;;28.87;8.03;;;;;;;4.87;63.49;99489.02;1777146;80;21518;-61
2021/10/07 06:29:46;;;;;;;19.95;7.53;;;;;;;4.95;63.12;99496.70;1777189;80;20912;-60
2021/10/07 06:32:14;;;;;;;18.37;8.18;;;;;;;5.03;62.71;99483.97;1777069;80;20879;-58
2021/10/07 06:34:41;;;;;;;17.92;7.50;;;;;;;5.13;62.58;99488.79;1777288;80;21382;-58
2021/10/07 06:37:09;;;;;;;16.10;7.65;;;;;;;5.19;62.16;99491.37;1777349;80;21830;-58
2021/10/07 06:39:36;;;;;;;18.57;7.72;;;;;;;5.28;62.12;99496.70;1784224;79;21014;-59
2021/10/07 06:42:04;;;;;;;21.17;7.67;;;;;;;5.38;61.65;99493.02;1778061;79;20999;-59
2021/10/07 06:44:33;;;;;;;17.67;8.65;;;;;;;5.46;60.90;99496.70;1806736;78;20914;-60
2021/10/07 06:47:01;;;;;;;20.52;8.58;;;;;;;5.53;60.95;99493.45;1835528;78;20899;-57
2021/10/07 06:49:30;;;;;;;19.80;7.83;;;;;;;5.64;60.75;99496.42;1829425;78;21470;-57
2021/10/07 06:51:58;;;;;;;19.90;7.25;;;;;;;5.74;60.32;99496.20;1815681;78;20888;-57
2021/10/07 06:54:25;;;;;;;17.85;7.62;;;;;;;5.83;59.63;99500.70;1822621;77;20976;-58
2021/10/07 06:56:52;;;;;;;23.77;8.93;;;;;;;5.91;59.42;99497.78;1816219;78;21245;-58
2021/10/07 06:59:23;;;;;;;23.40;9.80;;;;;;;6.01;59.32;99503.36;1816181;79;20971;-60
2021/10/07 07:01:52;;;;;;;18.62;9.00;;;;;;;6.11;58.91;99503.64;1754513;80;20944;-60
2021/10/07 07:04:19;;;;;;;28.73;12.60;;;;;;;6.23;58.89;99505.84;1777114;80;21419;-58
2021/10/07 07:06:48;;;;;;;21.20;9.73;;;;;;;6.35;58.55;99497.37;1760341;81;21536;-59
2021/10/07 07:09:16;;;;;;;34.08;9.55;;;;;;;6.49;58.36;99495.33;1759026;81;20953;-57
2021/10/07 07:11:47;;;;;;;22.58;8.48;;;;;;;6.63;57.88;99502.08;1759572;81;20973;-58
2021/10/07 07:14:14;;;;;;;22.58;8.53;;;;;;;6.74;57.41;99498.63;1773782;81;21128;-60
2021/10/07 07:16:41;;;;;;;29.23;8.28;;;;;;;6.85;57.02;99498.64;1773606;80;20916;-59
2021/10/07 07:19:13;;;;;;;19.95;8.63;;;;;;;6.98;56.90;99486.15;1774148;81;20928;-58
2021/10/07 07:21:38;;;;;;;23.77;8.85;;;;;;;7.11;56.51;99493.94;1767043;80;21038;-60
2021/10/07 07:24:07;;;;;;;24.20;9.30;;;;;;;7.23;56.20;99492.08;1742900;82;20997;-58
2021/10/07 07:26:35;;;;;;;22.15;8.30;;;;;;;7.37;56.10;99494.80;1742380;82;21908;-59
2021/10/07 07:29:03;;;;;;;25.80;8.93;;;;;;;7.50;55.51;99495.88;1821695;77;20865;-59
2021/10/07 07:31:31;;;;;;;21.62;8.90;;;;;;;7.62;55.15;99499.34;1819515;77;20916;-61
2021/10/07 07:33:59;;;;;;;19.37;10.08;;;;;;;7.74;54.52;99509.47;1839550;77;21513;-58
2021/10/07 07:36:26;;;;;;;23.45;9.23;;;;;;;7.84;53.90;99499.53;1815764;79;20920;-61
2021/10/07 07:38:52;;;;;;;22.22;9.55;;;;;;;7.92;53.87;99502.62;1815000;79;21755;-58
2021/10/07 07:41:19;;;;;;;19.77;9.08;;;;;;;8.04;54.16;99504.73;1815319;78;21051;-57
2021/10/07 07:43:46;;;;;;;21.05;9.90;;;;;;;8.17;53.62;99504.45;1831574;78;21070;-57
2021/10/07 07:46:18;;;;;;;23.67;10.10;;;;;;;8.33;52.67;99497.59;1815973;78;20857;-57
2021/10/07 07:48:45;;;;;;;19.92;9.50;;;;;;;8.44;52.53;99509.25;1815970;79;20842;-58
2021/10/07 07:51:12;;;;;;;24.25;9.50;;;;;;;8.53;52.09;99504.61;1807365;78;21132;-58
2021/10/07 07:53:39;;;;;;;19.82;9.88;;;;;;;8.66;52.47;99514.19;1806331;79;21017;-58
2021/10/07 07:56:05;;;;;;;24.72;10.45;;;;;;;8.82;52.25;99513.39;1815829;78;20987;-59
2021/10/07 07:58:33;;;;;;;24.43;11.15;;;;;;;8.97;51.24;99510.98;1797414;79;20876;-58
2021/10/07 08:01:01;;;;;;;22.10;10.23;;;;;;;9.10;51.55;99520.00;1803381;77;20919;-60
2021/10/07 08:03:34;;;;;;;20.97;10.55;;;;;;;9.20;49.91;99518.02;1787963;79;21188;-60
2021/10/07 08:06:00;;;;;;;19.52;10.13;;;;;;;9.22;49.96;99520.73;1816790;78;20863;-59
2021/10/07 08:08:27;;;;;;;20.35;9.30;;;;;;;9.26;49.63;99515.16;1813668;77;20989;-58
2021/10/07 08:10:54;;;;;;;16.57;9.68;;;;;;;9.32;50.04;99514.20;1811999;78;21006;-59
2021/10/07 08:13:21;;;;;;;17.80;10.10;;;;;;;9.43;49.87;99510.61;1823570;77;20920;-59
2021/10/07 08:15:51;;;;;;;28.67;10.98;;;;;;;9.54;49.85;99511.03;1824279;77;21164;-59
2021/10/07 08:18:19;;;;;;;27.85;10.70;;;;;;;9.69;49.69;99522.47;1830913;77;20928;-58
2021/10/07 08:20:51;;;;;;;23.98;11.80;;;;;;;9.86;49.14;99514.39;1823523;77;20988;-59
2021/10/07 08:23:17;;;;;;;23.40;11.03;;;;;;;10.01;49.21;99507.90;1807664;77;21473;-59
2021/10/07 08:25:44;;;;;;;21.65;10.58;;;;;;;10.13;48.42;99505.91;1817071;77;20915;-59
2021/10/07 08:28:10;;;;;;;25.37;9.80;;;;;;;10.21;47.67;99514.84;1820246;77;21113;-59
2021/10/07 08:30:37;;;;;;;27.58;9.95;;;;;;;10.29;47.59;99511.73;1825111;77;20959;-58
2021/10/07 08:33:07;;;;;;;24.95;10.48;;;;;;;10.42;47.16;99507.30;1823481;77;20974;-60
2021/10/07 08:35:35;;;;;;;23.92;9.95;;;;;;;10.53;46.75;99511.69;1822339;78;21070;-59
2021/10/07 08:38:01;;;;;;;16.25;9.45;;;;;;;10.59;45.84;99509.88;1822961;77;21105;-58
2021/10/07 08:40:28;;;;;;;28.12;11.43;;;;;;;10.63;45.35;99507.78;1826996;77;21081;-59
2021/10/07 08:42:56;;;;;;;28.35;12.25;;;;;;;10.67;45.52;99506.20;1826490;77;20856;-59
2021/10/07 08:45:23;;;;;;;22.82;10.25;;;;;;;10.71;45.37;99506.00;1825374;77;20911;-58
2021/10/07 08:47:52;;;;;;;19.23;10.98;;;;;;;10.78;44.82;99499.89;1823838;78;20954;-58
2021/10/07 08:50:19;;;;;;;20.60;10.15;;;;;;;10.84;43.95;99501.54;1822945;78;20969;-56
2021/10/07 08:52:46;;;;;;;21.37;10.93;;;;;;;10.86;42.89;99498.59;1824520;78;21722;-57
2021/10/07 08:55:13;;;;;;;21.10;8.83;;;;;;;10.87;43.36;99497.55;1824568;78;21433;-57
2021/10/07 08:57:40;;;;;;;13.55;8.28;;;;;;;10.90;43.81;99499.16;1824455;78;20861;-59
2021/10/07 09:00:11;;;;;;;24.85;9.10;;;;;;;10.95;43.67;99503.23;1829819;77;20920;-57
2021/10/07 09:02:38;;;;;;;16.05;8.85;;;;;;;11.06;43.34;99508.68;1835368;78;20919;-58
2021/10/07 09:05:22;;;;;;;19.95;9.68;;;;;;;11.12;42.85;99507.64;1819274;77;21076;-62
2021/10/07 09:08:02;;;;;;;23.05;10.13;;;;;;;11.17;42.28;99498.30;1822527;77;20924;-60
2021/10/07 09:10:43;;;;;;;26.50;9.50;;;;;;;11.20;42.51;99511.20;1827460;78;20925;-59
2021/10/07 09:13:25;;;;;;;25.10;10.45;;;;;;;11.25;42.00;99502.67;1830310;78;21391;-59
2021/10/07 09:15:56;;;;;;;18.30;8.65;;;;;;;11.31;42.36;99504.83;1830335;78;20917;-58
2021/10/07 09:18:26;;;;;;;20.25;9.48;;;;;;;11.38;40.76;99504.89;1836426;77;21073;-59
2021/10/07 09:20:55;;;;;;;17.23;9.93;;;;;;;11.38;41.09;99498.70;1834216;77;20869;-59
2021/10/07 09:23:33;;;;;;;21.00;9.13;;;;;;;11.41;41.39;99501.70;1830183;78;20876;-59
2021/10/07 09:26:11;;;;;;;18.62;8.68;;;;;;;11.46;40.93;99494.20;1830035;78;21413;-60
2021/10/07 09:28:54;;;;;;;20.08;9.08;;;;;;;11.47;40.99;99494.50;1830414;78;21458;-60
2021/10/07 09:31:32;;;;;;;19.37;8.18;;;;;;;11.51;41.13;99495.59;1830404;77;21081;-60
2021/10/07 09:34:05;;;;;;;14.50;6.85;;;;;;;11.60;40.78;99503.41;1837284;77;20912;-60
2021/10/07 09:36:39;;;;;;;26.48;13.03;;;;;;;11.66;40.36;99496.98;1829428;77;20848;-59
2021/10/07 09:39:07;;;;;;;19.52;6.95;;;;;;;11.70;39.97;99491.43;1828029;78;21001;-59
2021/10/07 09:41:35;;;;;;;17.07;6.33;;;;;;;11.71;39.84;99494.37;1835511;77;20883;-58
2021/10/07 09:44:08;;;;;;;12.35;5.97;;;;;;;11.73;40.03;99488.76;1829646;78;21833;-56
2021/10/07 09:46:48;;;;;;;17.23;5.78;;;;;;;11.78;39.91;99497.63;1829652;78;21046;-58
2021/10/07 09:49:33;;;;;;;19.17;5.60;;;;;;;11.85;39.36;99511.62;1829966;78;20891;-58
2021/10/07 09:52:01;;;;;;;18.23;6.35;;;;;;;11.88;39.13;99509.76;1830402;78;20966;-59
2021/10/07 09:54:34;;;;;;;20.45;6.12;;;;;;;11.87;38.71;99506.78;1780877;78;21030;-60
2021/10/07 09:57:03;;;;;;;17.67;5.03;;;;;;;11.88;39.39;99506.26;1759930;81;21411;-58
2021/10/07 09:59:32;;;;;;;17.73;5.65;;;;;;;11.93;38.82;99504.41;1781327;80;20927;-58
2021/10/07 10:02:00;;;;;;;17.27;5.22;;;;;;;11.98;38.92;99490.20;1791364;78;20988;-59
2021/10/07 10:04:27;;;;;;;13.68;4.65;;;;;;;11.99;38.97;99503.35;1784885;78;21500;-60
2021/10/07 10:06:57;;;;;;;13.78;3.60;;;;;;;12.02;38.81;99501.49;1781156;79;21031;-58
2021/10/07 10:09:26;;;;;;;17.52;4.58;;;;;;;12.08;38.12;99510.39;1732179;80;22397;-59
2021/10/07 10:11:53;;;;;;;12.65;4.75;;;;;;;12.09;38.03;99514.67;1777273;80;20876;-58
2021/10/07 10:14:24;;;;;;;20.60;6.33;;;;;;;12.08;37.38;99518.45;1775899;80;20951;-60
2021/10/07 10:16:51;;;;;;;20.12;4.55;;;;;;;12.07;37.45;99501.52;1777271;80;20967;-58
2021/10/07 10:19:19;;;;;;;13.18;4.45;;;;;;;12.10;37.90;99513.08;1775216;80;21050;-59
2021/10/07 10:21:46;;;;;;;11.78;3.80;;;;;;;12.13;37.41;99508.51;1776419;80;21441;-58
2021/10/07 10:24:14;;;;;;;11.00;3.90;;;;;;;12.14;37.27;99503.42;1776249;80;20952;-58
2021/10/07 10:26:41;;;;;;;15.48;3.72;;;;;;;12.17;37.70;99506.93;1776825;80;20860;-58
2021/10/07 10:29:21;;;;;;;15.30;3.62;;;;;;;12.25;37.42;99513.64;1776371;80;21100;-59
2021/10/07 10:31:51;;;;;;;10.18;3.70;;;;;;;12.33;37.19;99512.62;1776539;80;21002;-59
2021/10/07 10:34:18;;;;;;;7.90;3.17;;;;;;;12.39;37.11;99517.45;1776455;80;21197;-57
2021/10/07 10:36:51;;;;;;;15.93;4.05;;;;;;;12.47;37.93;99509.41;1755019;80;20932;-61
2021/10/07 10:39:27;;;;;;;11.53;4.30;;;;;;;12.55;37.58;99512.41;1776510;80;21454;-60
2021/10/07 10:42:04;;;;;;;13.50;4.22;;;;;;;12.64;36.88;99505.42;1776485;80;20998;-59
2021/10/07 10:45:04;;;;;;;13.20;3.92;;;;;;;12.69;36.98;99501.94;1777108;80;20875;-59
2021/10/07 10:47:40;;;;;;;9.38;4.00;;;;;;;12.76;36.85;99504.63;1777275;80;21110;-59
2021/10/07 10:50:12;;;;;;;13.03;5.85;;;;;;;12.83;36.56;99502.48;1776822;80;20991;-58
2021/10/07 10:52:46;;;;;;;14.70;5.33;;;;;;;12.82;35.99;99503.55;1766048;79;20931;-59
2021/10/07 10:55:25;;;;;;;14.53;5.30;;;;;;;12.84;36.16;99499.23;1766847;80;21478;-62
2021/10/07 10:58:06;;;;;;;10.13;4.20;;;;;;;12.86;35.86;99497.08;1762462;80;21435;-58
2021/10/07 11:00:39;;;;;;;11.57;4.00;;;;;;;12.85;35.80;99495.48;1777378;80;21195;-59
2021/10/07 11:03:15;;;;;;;12.68;4.00;;;;;;;12.88;35.93;99497.08;1777276;80;20923;-58
2021/10/07 11:08:52;;;;;;;13.53;3.77;;;;;;;13.01;35.54;99503.82;1765676;80;20108;-59
2021/10/07 11:11:29;;;;;;;9.88;3.30;;;;;;;13.07;35.95;99497.94;1765409;81;21048;-58
2021/10/07 11:13:56;;;;;;;18.40;4.05;;;;;;;13.11;35.37;99494.97;1765576;81;21101;-59
2021/10/07 11:16:24;;;;;;;8.08;3.33;;;;;;;13.15;35.80;99491.47;1737773;81;20873;-59
2021/10/07 11:18:52;;;;;;;4.62;2.87;;;;;;;13.29;35.58;99492.53;1765653;81;20897;-59
2021/10/07 11:21:22;;;;;;;10.15;2.90;;;;;;;13.39;34.91;99487.14;1760651;80;20904;-58
2021/10/07 11:23:52;;;;;;;16.00;3.55;;;;;;;13.47;35.27;99485.22;1775490;79;20948;-58
2021/10/07 11:26:27;;;;;;;10.95;3.90;;;;;;;13.56;35.27;99494.91;1746884;82;21788;-60
2021/10/07 11:28:54;;;;;;;12.23;3.62;;;;;;;13.66;34.95;99491.63;1817673;78;21451;-58
2021/10/07 11:31:25;;;;;;;9.98;3.25;;;;;;;13.76;35.00;99484.59;1817778;78;20872;-59
2021/10/07 11:33:54;;;;;;;12.18;3.60;;;;;;;13.80;34.54;99499.14;1828640;77;20841;-59
2021/10/07 11:36:25;;;;;;;11.35;3.95;;;;;;;13.81;34.59;99487.28;1824417;78;20963;-58
2021/10/07 11:38:53;;;;;;;12.68;5.78;;;;;;;13.87;34.44;99494.27;1823935;77;21256;-60
2021/10/07 11:41:22;;;;;;;13.90;4.97;;;;;;;13.95;34.67;99496.38;1824531;78;20954;-60
2021/10/07 11:43:49;;;;;;;13.60;5.97;;;;;;;14.07;34.78;99494.17;1824668;77;20873;-60
2021/10/07 11:46:18;;;;;;;12.00;5.15;;;;;;;14.21;34.64;99495.19;1829064;77;20879;-60
2021/10/07 11:48:50;;;;;;;25.62;9.18;;;;;;;14.31;34.11;99491.94;1824861;78;20911;-60
2021/10/07 11:51:18;;;;;;;19.48;9.10;;;;;;;14.41;33.88;99495.12;1824221;78;21142;-59
2021/10/07 11:53:50;;;;;;;18.12;7.75;;;;;;;14.45;33.58;99498.86;1825502;77;20911;-60
2021/10/07 11:56:26;;;;;;;17.73;6.20;;;;;;;14.44;33.52;99489.72;1835254;77;20940;-59
2021/10/07 11:59:00;;;;;;;19.10;7.12;;;;;;;14.46;33.85;99486.19;1824479;78;20840;-60
2021/10/07 12:01:34;;;;;;;23.20;9.38;;;;;;;14.53;33.25;99494.78;1787224;79;21549;-60
2021/10/07 12:04:04;;;;;;;14.30;7.37;;;;;;;14.54;33.59;99481.00;1785752;79;21115;-60
2021/10/07 12:06:35;;;;;;;17.05;8.18;;;;;;;14.59;33.37;99486.37;1792305;79;21410;-60
2021/10/07 12:09:09;;;;;;;24.67;10.98;;;;;;;14.63;33.57;99490.64;1791664;79;20919;-60
2021/10/07 12:11:36;;;;;;;38.67;18.90;;;;;;;14.68;33.45;99474.43;1782196;79;20954;-61
2021/10/07 12:14:03;;;;;;;35.52;15.55;;;;;;;14.78;33.71;99479.76;1753656;81;21078;-59
2021/10/07 12:16:42;;;;;;;26.73;12.65;;;;;;;14.87;33.24;99468.63;1774078;80;21582;-58
2021/10/07 12:19:11;;;;;;;28.67;15.05;;;;;;;14.93;33.40;99477.73;1784679;80;21092;-59
2021/10/07 12:21:47;;;;;;;29.32;13.43;;;;;;;14.99;33.15;99477.97;1784885;80;20966;-59
2021/10/07 12:24:15;;;;;;;24.35;10.45;;;;;;;15.07;33.41;99472.52;1783640;80;21363;-59
2021/10/07 12:26:52;;;;;;;15.30;6.28;;;;;;;15.18;33.08;99463.77;1785362;80;20891;-58
2021/10/07 12:29:27;;;;;;;27.60;10.72;;;;;;;15.23;33.08;99475.86;1785388;80;21112;-58
2021/10/07 12:32:04;;;;;;;;;;;;;;;15.19;32.99;99478.31;1780311;80;21445;-59
2021/10/07 12:34:36;;;;;;;44.58;17.57;;;;;;;15.20;32.85;99476.42;1754443;80;20149;-59
2021/10/07 12:37:08;;;;;;;21.82;7.00;;;;;;;15.18;32.92;99471.86;1754645;81;21434;-58
2021/10/07 12:39:46;;;;;;;20.85;8.23;;;;;;;15.19;32.51;99481.58;1754509;81;20891;-59
2021/10/07 12:42:25;;;;;;;30.80;13.10;;;;;;;15.17;32.75;99479.72;1754519;81;21120;-58
2021/10/07 12:44:58;;;;;;;44.77;16.17;;;;;;;15.19;32.91;99477.53;1761270;80;21025;-58
2021/10/07 12:47:33;;;;;;;26.80;9.93;;;;;;;15.20;32.77;99480.47;1785232;80;21525;-57
2021/10/07 12:50:15;;;;;;;29.60;8.48;;;;;;;15.21;32.72;99481.55;1771828;80;20994;-59
2021/10/07 12:52:57;;;;;;;15.45;8.25;;;;;;;15.22;32.85;99475.59;1784293;80;21319;-59
2021/10/07 12:55:26;;;;;;;18.12;8.23;;;;;;;15.25;32.91;99477.73;1785202;80;21478;-60
2021/10/07 12:57:56;;;;;;;19.80;8.68;;;;;;;15.27;32.98;99476.89;1784427;80;21360;-60
2021/10/07 13:00:28;;;;;;;27.80;11.00;;;;;;;15.31;33.23;99477.39;1784262;80;21645;-60
2021/10/07 13:02:56;;;;;;;20.72;8.10;;;;;;;15.29;33.05;99478.77;1785321;80;20892;-58
2021/10/07 13:05:30;;;;;;;19.05;7.15;;;;;;;15.36;32.88;99479.23;1783900;80;21686;-57
2021/10/07 13:08:01;;;;;;;14.33;6.92;;;;;;;15.36;33.03;99481.39;1778167;80;21728;-62
2021/10/07 13:10:29;;;;;;;16.25;6.90;;;;;;;15.39;33.27;99479.48;1775668;80;20962;-59
2021/10/07 13:12:58;;;;;;;18.12;6.90;;;;;;;15.47;33.03;99468.64;1765073;80;21487;-61
2021/10/07 13:15:25;;;;;;;24.77;8.80;;;;;;;15.50;32.83;99468.05;1774493;80;21021;-62
2021/10/07 13:17:52;;;;;;;21.12;7.17;;;;;;;15.52;32.81;99468.59;1746363;80;21097;-61
2021/10/07 13:20:19;;;;;;;23.20;8.15;;;;;;;15.52;32.88;99469.94;1752997;80;21141;-58
2021/10/07 13:22:47;;;;;;;25.50;9.85;;;;;;;15.51;33.05;99475.87;1744277;82;21094;-60
2021/10/07 13:25:15;;;;;;;24.60;9.83;;;;;;;15.47;33.06;99475.39;1746413;82;20903;-60
2021/10/07 13:27:44;;;;;;;15.18;7.40;;;;;;;15.45;33.13;99470.83;1746451;82;20896;-58
2021/10/07 13:30:16;;;;;;;21.65;12.45;;;;;;;15.45;33.22;99482.41;1746709;82;20978;-59
2021/10/07 13:32:47;;;;;;;19.42;7.45;;;;;;;15.45;33.19;99478.36;1746410;82;21097;-59
2021/10/07 13:35:14;;;;;;;16.85;8.40;;;;;;;15.48;32.94;99481.03;1745947;82;20931;-59
2021/10/07 13:37:47;;;;;;;20.65;7.20;;;;;;;15.46;33.18;99483.22;1745105;82;21482;-63
2021/10/07 13:40:12;;;;;;;20.05;9.63;;;;;;;15.42;33.19;99484.86;1745186;82;21064;-61
2021/10/07 13:42:38;;;;;;;15.90;7.37;;;;;;;15.40;33.30;99488.39;1745193;82;21144;-60
2021/10/07 13:45:06;;;;;;;22.90;8.50;;;;;;;15.36;33.24;99484.63;1745974;82;21141;-61
2021/10/07 13:47:34;;;;;;;18.50;8.78;;;;;;;15.30;33.26;99486.59;1745446;82;20971;-59
2021/10/07 13:50:00;;;;;;;15.43;7.80;;;;;;;15.27;33.74;99489.05;1746103;82;20932;-56
2021/10/07 13:52:27;;;;;;;14.25;6.40;;;;;;;15.31;34.14;99487.41;1745999;82;21023;-58
2021/10/07 13:54:55;;;;;;;20.65;6.72;;;;;;;15.33;33.53;99496.80;1746440;82;20879;-60
2021/10/07 13:57:23;;;;;;;14.40;4.60;;;;;;;15.21;33.07;99486.14;1746467;82;21834;-60
2021/10/07 13:59:50;;;;;;;9.20;4.85;;;;;;;15.05;33.08;99482.22;1746758;82;21513;-58
2021/10/07 14:02:17;;;;;;;13.48;4.65;;;;;;;14.94;33.52;99486.10;1746452;82;20927;-61
2021/10/07 14:04:44;;;;;;;16.05;3.85;;;;;;;14.88;33.17;99492.64;1746410;82;20923;-58
2021/10/07 14:07:11;;;;;;;11.65;5.12;;;;;;;14.78;33.22;99489.20;1746356;82;20909;-58
2021/10/07 14:09:37;;;;;;;10.10;4.37;;;;;;;14.66;33.12;99495.48;1746497;82;21114;-58
2021/10/07 14:12:07;;;;;;;14.75;3.87;;;;;;;14.54;33.20;99500.41;1746374;82;20844;-58
2021/10/07 14:14:33;;;;;;;14.63;3.70;;;;;;;14.37;33.17;99492.16;1746346;82;20868;-59
2021/10/07 14:17:00;;;;;;;12.13;3.37;;;;;;;14.21;33.29;99496.00;1746411;82;20923;-60
2021/10/07 14:19:29;;;;;;;14.90;5.37;;;;;;;14.10;33.57;99498.48;1746443;82;20987;-59
2021/10/07 14:21:56;;;;;;;19.70;8.50;;;;;;;14.02;34.18;99504.97;1746448;82;21182;-59
2021/10/07 14:24:23;;;;;;;18.70;6.35;;;;;;;13.88;33.40;99509.33;1746392;82;21409;-59
2021/10/07 14:26:50;;;;;;;12.60;5.12;;;;;;;13.66;33.53;99507.78;1746663;82;20876;-59
2021/10/07 14:29:16;;;;;;;9.63;4.85;;;;;;;13.51;32.97;99512.41;1746421;82;20963;-58
2021/10/07 14:31:45;;;;;;;14.78;5.22;;;;;;;13.37;33.23;99515.40;1746406;82;21364;-59
2021/10/07 14:34:11;;;;;;;10.95;5.47;;;;;;;13.26;33.23;99514.59;1746428;82;21111;-58
2021/10/07 14:36:38;;;;;;;16.02;4.67;;;;;;;13.29;33.59;99516.74;1746712;82;21011;-59
2021/10/07 14:39:05;;;;;;;16.80;4.35;;;;;;;13.39;33.32;99514.58;1746411;82;20879;-58
2021/10/07 14:41:31;;;;;;;17.48;4.53;;;;;;;13.50;33.03;99522.36;1746665;82;21458;-59
2021/10/07 14:43:58;;;;;;;8.48;3.35;;;;;;;13.49;32.68;99518.61;1746424;82;20982;-59
2021/10/07 14:46:25;;;;;;;9.08;3.65;;;;;;;13.30;32.44;99517.03;1746581;82;21680;-59
2021/10/07 14:48:53;;;;;;;7.78;3.83;;;;;;;13.07;32.50;99520.28;1746250;82;20903;-57
2021/10/07 14:51:20;;;;;;;12.37;4.83;;;;;;;12.82;33.17;99523.72;1746618;82;21423;-58
2021/10/07 14:53:47;;;;;;;14.73;5.92;;;;;;;12.60;33.56;99526.38;1746300;82;20963;-60
2021/10/07 14:56:14;;;;;;;10.00;5.20;;;;;;;12.44;33.95;99526.87;1746705;82;20876;-57
2021/10/07 14:58:41;;;;;;;11.18;4.40;;;;;;;12.30;34.79;99531.94;1746498;82;21739;-57
2021/10/07 15:01:07;;;;;;;17.15;4.22;;;;;;;12.13;35.22;99527.87;1746295;82;20974;-58
2021/10/07 15:03:35;;;;;;;14.93;3.98;;;;;;;11.98;35.76;99535.32;1746275;82;20888;-59
2021/10/07 15:06:01;;;;;;;10.82;4.55;;;;;;;11.84;35.67;99539.55;1746447;82;21050;-59
2021/10/07 15:08:27;;;;;;;12.63;4.58;;;;;;;11.71;35.83;99543.20;1751688;81;20899;-58
2021/10/07 15:10:54;;;;;;;11.00;3.83;;;;;;;11.61;35.88;99535.34;1754483;81;21402;-58
2021/10/07 15:13:20;;;;;;;9.88;4.42;;;;;;;11.49;36.08;99547.36;1754320;81;20879;-59
2021/10/07 15:15:48;;;;;;;10.15;4.28;;;;;;;11.37;36.58;99546.21;1754384;81;21517;-59
